sensor_id;sensor_type;location;lat;lon;timestamp;temperature;humidity
25582;DHT22;13462;50.764;4.332;2024-02-26T00:01:41;7.00;99.90
25582;DHT22;13462;50.764;4.332;2024-02-26T00:04:09;7.00;99.90
25582;DHT22;13462;50.764;4.332;2024-02-26T00:06:35;7.00;99.90
25582;DHT22;13462;50.764;4.332;2024-02-26T00:09:00;7.00;99.90
25582;DHT22;13462;50.764;4.332;2024-02-26T00:11:28;7.00;99.90
25582;DHT22;13462;50.764;4.332;2024-02-26T00:13:53;6.90;99.90
25582;DHT22;13462;50.764;4.332;2024-02-26T00:16:19;6.90;99.90
25582;DHT22;13462;50.764;4.332;2024-02-26T00:18:44;6.90;99.90
25582;DHT22;13462;50.764;4.332;2024-02-26T00:21:10;6.90;99.90
25582;DHT22;13462;50.764;4.332;2024-02-26T00:23:35;6.90;99.90
25582;DHT22;13462;50.764;4.332;2024-02-26T00:26:01;6.90;99.90
25582;DHT22;13462;50.764;4.332;2024-02-26T00:28:27;6.90;99.90
25582;DHT22;13462;50.764;4.332;2024-02-26T00:30:54;6.90;99.90
25582;DHT22;13462;50.764;4.332;2024-02-26T00:33:21;7.00;99.90
25582;DHT22;13462;50.764;4.332;2024-02-26T00:35:47;7.00;99.90
25582;DHT22;13462;50.764;4.332;2024-02-26T00:38:12;6.90;99.90
25582;DHT22;13462;50.764;4.332;2024-02-26T00:40:38;6.90;99.90
25582;DHT22;13462;50.764;4.332;2024-02-26T00:43:04;6.90;99.90
25582;DHT22;13462;50.764;4.332;2024-02-26T00:45:29;6.80;99.90
25582;DHT22;13462;50.764;4.332;2024-02-26T00:47:55;6.90;99.90
25582;DHT22;13462;50.764;4.332;2024-02-26T00:50:21;6.90;99.90
25582;DHT22;13462;50.764;4.332;2024-02-26T00:52:46;6.80;99.90
25582;DHT22;13462;50.764;4.332;2024-02-26T00:55:12;6.80;99.90
25582;DHT22;13462;50.764;4.332;2024-02-26T00:57:37;6.80;99.90
25582;DHT22;13462;50.764;4.332;2024-02-26T01:00:03;6.80;99.90
25582;DHT22;13462;50.764;4.332;2024-02-26T01:02:29;6.80;99.90
25582;DHT22;13462;50.764;4.332;2024-02-26T01:04:55;6.80;99.90
25582;DHT22;13462;50.764;4.332;2024-02-26T01:07:20;6.70;99.90
25582;DHT22;13462;50.764;4.332;2024-02-26T01:09:46;6.70;99.90
25582;DHT22;13462;50.764;4.332;2024-02-26T01:12:12;6.70;99.90
25582;DHT22;13462;50.764;4.332;2024-02-26T01:14:37;6.70;99.90
25582;DHT22;13462;50.764;4.332;2024-02-26T01:17:03;6.70;99.90
25582;DHT22;13462;50.764;4.332;2024-02-26T01:19:29;6.60;99.90
25582;DHT22;13462;50.764;4.332;2024-02-26T01:21:54;6.70;99.90
25582;DHT22;13462;50.764;4.332;2024-02-26T01:24:20;6.70;99.90
25582;DHT22;13462;50.764;4.332;2024-02-26T01:26:45;6.70;99.90
25582;DHT22;13462;50.764;4.332;2024-02-26T01:29:11;6.70;99.90
25582;DHT22;13462;50.764;4.332;2024-02-26T01:31:36;6.60;99.90
25582;DHT22;13462;50.764;4.332;2024-02-26T01:34:02;6.60;99.90
25582;DHT22;13462;50.764;4.332;2024-02-26T01:36:27;6.60;99.90
25582;DHT22;13462;50.764;4.332;2024-02-26T01:38:53;6.60;99.90
25582;DHT22;13462;50.764;4.332;2024-02-26T01:41:19;6.60;99.90
25582;DHT22;13462;50.764;4.332;2024-02-26T01:43:44;6.60;99.90
25582;DHT22;13462;50.764;4.332;2024-02-26T01:46:13;6.60;99.90
25582;DHT22;13462;50.764;4.332;2024-02-26T01:48:42;6.70;99.90
25582;DHT22;13462;50.764;4.332;2024-02-26T01:51:10;6.60;99.90
25582;DHT22;13462;50.764;4.332;2024-02-26T01:53:38;6.60;99.90
25582;DHT22;13462;50.764;4.332;2024-02-26T01:56:04;6.60;99.90
25582;DHT22;13462;50.764;4.332;2024-02-26T01:58:30;6.60;99.90
25582;DHT22;13462;50.764;4.332;2024-02-26T02:00:57;6.60;99.90
25582;DHT22;13462;50.764;4.332;2024-02-26T02:03:23;6.60;99.90
25582;DHT22;13462;50.764;4.332;2024-02-26T02:05:49;6.60;99.90
25582;DHT22;13462;50.764;4.332;2024-02-26T02:08:14;6.60;99.90
25582;DHT22;13462;50.764;4.332;2024-02-26T02:10:41;6.60;99.90
25582;DHT22;13462;50.764;4.332;2024-02-26T02:13:07;6.70;99.90
25582;DHT22;13462;50.764;4.332;2024-02-26T02:15:33;6.60;99.90
25582;DHT22;13462;50.764;4.332;2024-02-26T02:17:58;6.60;99.90
25582;DHT22;13462;50.764;4.332;2024-02-26T02:20:34;6.60;99.90
25582;DHT22;13462;50.764;4.332;2024-02-26T02:23:00;6.60;99.90
25582;DHT22;13462;50.764;4.332;2024-02-26T02:25:26;6.50;99.90
25582;DHT22;13462;50.764;4.332;2024-02-26T02:27:53;6.50;99.90
25582;DHT22;13462;50.764;4.332;2024-02-26T02:30:27;6.50;99.90
25582;DHT22;13462;50.764;4.332;2024-02-26T02:32:53;6.50;99.90
25582;DHT22;13462;50.764;4.332;2024-02-26T02:35:19;6.50;99.90
25582;DHT22;13462;50.764;4.332;2024-02-26T02:37:45;6.50;99.90
25582;DHT22;13462;50.764;4.332;2024-02-26T02:40:10;6.60;99.90
25582;DHT22;13462;50.764;4.332;2024-02-26T02:42:36;6.60;99.90
25582;DHT22;13462;50.764;4.332;2024-02-26T02:45:02;6.50;99.90
25582;DHT22;13462;50.764;4.332;2024-02-26T02:47:27;6.50;99.90
25582;DHT22;13462;50.764;4.332;2024-02-26T02:49:53;6.50;99.90
25582;DHT22;13462;50.764;4.332;2024-02-26T02:52:18;6.50;99.90
25582;DHT22;13462;50.764;4.332;2024-02-26T02:54:44;6.50;99.90
25582;DHT22;13462;50.764;4.332;2024-02-26T02:57:09;6.50;99.90
25582;DHT22;13462;50.764;4.332;2024-02-26T02:59:37;6.50;99.90
25582;DHT22;13462;50.764;4.332;2024-02-26T03:02:03;6.50;99.90
25582;DHT22;13462;50.764;4.332;2024-02-26T03:04:28;6.50;99.90
25582;DHT22;13462;50.764;4.332;2024-02-26T03:06:55;6.50;99.90
25582;DHT22;13462;50.764;4.332;2024-02-26T03:09:20;6.50;99.90
25582;DHT22;13462;50.764;4.332;2024-02-26T03:11:46;6.40;99.90
25582;DHT22;13462;50.764;4.332;2024-02-26T03:14:11;6.40;99.90
25582;DHT22;13462;50.764;4.332;2024-02-26T03:16:37;6.40;99.90
25582;DHT22;13462;50.764;4.332;2024-02-26T03:19:02;6.40;99.90
25582;DHT22;13462;50.764;4.332;2024-02-26T03:21:28;6.30;99.90
25582;DHT22;13462;50.764;4.332;2024-02-26T03:23:54;6.30;99.90
25582;DHT22;13462;50.764;4.332;2024-02-26T03:26:20;6.30;99.90
25582;DHT22;13462;50.764;4.332;2024-02-26T03:28:47;6.40;99.90
25582;DHT22;13462;50.764;4.332;2024-02-26T03:31:12;6.30;99.90
25582;DHT22;13462;50.764;4.332;2024-02-26T03:33:38;6.30;99.90
25582;DHT22;13462;50.764;4.332;2024-02-26T03:36:04;6.30;99.90
25582;DHT22;13462;50.764;4.332;2024-02-26T03:38:30;6.30;99.90
25582;DHT22;13462;50.764;4.332;2024-02-26T03:40:55;6.40;99.90
25582;DHT22;13462;50.764;4.332;2024-02-26T03:43:21;6.30;99.90
25582;DHT22;13462;50.764;4.332;2024-02-26T03:45:47;6.30;99.90
25582;DHT22;13462;50.764;4.332;2024-02-26T03:48:12;6.30;99.90
25582;DHT22;13462;50.764;4.332;2024-02-26T03:50:38;6.30;99.90
25582;DHT22;13462;50.764;4.332;2024-02-26T03:53:04;6.30;99.90
25582;DHT22;13462;50.764;4.332;2024-02-26T03:55:29;6.30;99.90
25582;DHT22;13462;50.764;4.332;2024-02-26T03:57:55;6.40;99.90
25582;DHT22;13462;50.764;4.332;2024-02-26T04:00:20;6.40;99.90
25582;DHT22;13462;50.764;4.332;2024-02-26T04:02:49;6.40;99.90
25582;DHT22;13462;50.764;4.332;2024-02-26T04:05:15;6.40;99.90
25582;DHT22;13462;50.764;4.332;2024-02-26T04:07:41;6.40;99.90
25582;DHT22;13462;50.764;4.332;2024-02-26T04:10:10;6.40;99.90
25582;DHT22;13462;50.764;4.332;2024-02-26T04:12:38;6.40;99.90
25582;DHT22;13462;50.764;4.332;2024-02-26T04:15:05;6.40;99.90
25582;DHT22;13462;50.764;4.332;2024-02-26T04:17:31;6.40;99.90
25582;DHT22;13462;50.764;4.332;2024-02-26T04:19:56;6.40;99.90
25582;DHT22;13462;50.764;4.332;2024-02-26T04:22:22;6.40;99.90
25582;DHT22;13462;50.764;4.332;2024-02-26T04:24:47;6.40;99.90
25582;DHT22;13462;50.764;4.332;2024-02-26T04:27:13;6.40;99.90
25582;DHT22;13462;50.764;4.332;2024-02-26T04:29:38;6.50;99.90
25582;DHT22;13462;50.764;4.332;2024-02-26T04:32:04;6.50;99.90
25582;DHT22;13462;50.764;4.332;2024-02-26T04:34:30;6.50;99.90
25582;DHT22;13462;50.764;4.332;2024-02-26T04:36:55;6.40;99.90
25582;DHT22;13462;50.764;4.332;2024-02-26T04:39:21;6.40;99.90
25582;DHT22;13462;50.764;4.332;2024-02-26T04:41:46;6.30;99.90
25582;DHT22;13462;50.764;4.332;2024-02-26T04:44:12;6.30;99.90
25582;DHT22;13462;50.764;4.332;2024-02-26T04:46:37;6.30;99.90
25582;DHT22;13462;50.764;4.332;2024-02-26T04:49:03;6.30;99.90
25582;DHT22;13462;50.764;4.332;2024-02-26T04:51:29;6.40;99.90
25582;DHT22;13462;50.764;4.332;2024-02-26T04:53:54;6.30;99.90
25582;DHT22;13462;50.764;4.332;2024-02-26T04:56:23;6.30;99.90
25582;DHT22;13462;50.764;4.332;2024-02-26T04:58:48;6.30;99.90
25582;DHT22;13462;50.764;4.332;2024-02-26T05:01:15;6.30;99.90
25582;DHT22;13462;50.764;4.332;2024-02-26T05:03:42;6.30;99.90
25582;DHT22;13462;50.764;4.332;2024-02-26T05:06:08;6.30;99.90
25582;DHT22;13462;50.764;4.332;2024-02-26T05:08:34;6.30;99.90
25582;DHT22;13462;50.764;4.332;2024-02-26T05:11:02;6.30;99.90
25582;DHT22;13462;50.764;4.332;2024-02-26T05:13:28;6.30;99.90
25582;DHT22;13462;50.764;4.332;2024-02-26T05:15:54;6.30;99.90
25582;DHT22;13462;50.764;4.332;2024-02-26T05:18:19;6.30;99.90
25582;DHT22;13462;50.764;4.332;2024-02-26T05:20:45;6.30;99.90
25582;DHT22;13462;50.764;4.332;2024-02-26T05:23:11;6.30;99.90
25582;DHT22;13462;50.764;4.332;2024-02-26T05:25:36;6.30;99.90
25582;DHT22;13462;50.764;4.332;2024-02-26T05:28:02;6.30;99.90
25582;DHT22;13462;50.764;4.332;2024-02-26T05:30:28;6.30;99.90
25582;DHT22;13462;50.764;4.332;2024-02-26T05:32:54;6.30;99.90
25582;DHT22;13462;50.764;4.332;2024-02-26T05:35:20;6.20;99.90
25582;DHT22;13462;50.764;4.332;2024-02-26T05:37:45;6.20;99.90
25582;DHT22;13462;50.764;4.332;2024-02-26T05:40:11;6.20;99.90
25582;DHT22;13462;50.764;4.332;2024-02-26T05:42:37;6.20;99.90
25582;DHT22;13462;50.764;4.332;2024-02-26T05:45:03;6.20;99.90
25582;DHT22;13462;50.764;4.332;2024-02-26T05:47:33;6.20;99.90
25582;DHT22;13462;50.764;4.332;2024-02-26T05:49:58;6.20;99.90
25582;DHT22;13462;50.764;4.332;2024-02-26T05:52:26;6.20;99.90
25582;DHT22;13462;50.764;4.332;2024-02-26T05:54:52;6.20;99.90
25582;DHT22;13462;50.764;4.332;2024-02-26T05:57:17;6.30;99.90
25582;DHT22;13462;50.764;4.332;2024-02-26T05:59:44;6.30;99.90
25582;DHT22;13462;50.764;4.332;2024-02-26T06:02:09;6.30;99.90
25582;DHT22;13462;50.764;4.332;2024-02-26T06:04:35;6.30;99.90
25582;DHT22;13462;50.764;4.332;2024-02-26T06:07:00;6.30;99.90
25582;DHT22;13462;50.764;4.332;2024-02-26T06:09:26;6.30;99.90
25582;DHT22;13462;50.764;4.332;2024-02-26T06:11:52;6.30;99.90
25582;DHT22;13462;50.764;4.332;2024-02-26T06:14:17;6.30;99.90
25582;DHT22;13462;50.764;4.332;2024-02-26T06:16:44;6.30;99.90
25582;DHT22;13462;50.764;4.332;2024-02-26T06:19:10;6.30;99.90
25582;DHT22;13462;50.764;4.332;2024-02-26T06:21:36;6.30;99.90
25582;DHT22;13462;50.764;4.332;2024-02-26T06:24:02;6.30;99.90
25582;DHT22;13462;50.764;4.332;2024-02-26T06:26:27;6.30;99.90
25582;DHT22;13462;50.764;4.332;2024-02-26T06:28:56;6.30;99.90
25582;DHT22;13462;50.764;4.332;2024-02-26T06:31:22;6.20;99.90
25582;DHT22;13462;50.764;4.332;2024-02-26T06:33:49;6.30;99.90
25582;DHT22;13462;50.764;4.332;2024-02-26T06:36:17;6.20;99.90
25582;DHT22;13462;50.764;4.332;2024-02-26T06:38:43;6.20;99.90
25582;DHT22;13462;50.764;4.332;2024-02-26T06:41:09;6.20;99.90
25582;DHT22;13462;50.764;4.332;2024-02-26T06:43:34;6.20;99.90
25582;DHT22;13462;50.764;4.332;2024-02-26T06:46:00;6.20;99.90
25582;DHT22;13462;50.764;4.332;2024-02-26T06:48:26;6.20;99.90
25582;DHT22;13462;50.764;4.332;2024-02-26T06:50:51;6.30;99.90
25582;DHT22;13462;50.764;4.332;2024-02-26T06:53:17;6.30;99.90
25582;DHT22;13462;50.764;4.332;2024-02-26T06:55:43;6.30;99.90
25582;DHT22;13462;50.764;4.332;2024-02-26T06:58:08;6.30;99.90
25582;DHT22;13462;50.764;4.332;2024-02-26T07:00:35;6.30;99.90
25582;DHT22;13462;50.764;4.332;2024-02-26T07:03:00;6.30;99.90
25582;DHT22;13462;50.764;4.332;2024-02-26T07:05:27;6.30;99.90
25582;DHT22;13462;50.764;4.332;2024-02-26T07:07:53;6.20;99.90
25582;DHT22;13462;50.764;4.332;2024-02-26T07:10:18;6.20;99.90
25582;DHT22;13462;50.764;4.332;2024-02-26T07:12:44;6.20;99.90
25582;DHT22;13462;50.764;4.332;2024-02-26T07:15:10;6.10;99.90
25582;DHT22;13462;50.764;4.332;2024-02-26T07:17:36;6.10;99.90
25582;DHT22;13462;50.764;4.332;2024-02-26T07:20:02;6.20;99.90
25582;DHT22;13462;50.764;4.332;2024-02-26T07:22:30;6.20;99.90
25582;DHT22;13462;50.764;4.332;2024-02-26T07:24:55;6.20;99.90
25582;DHT22;13462;50.764;4.332;2024-02-26T07:27:21;6.20;99.90
25582;DHT22;13462;50.764;4.332;2024-02-26T07:29:47;6.20;99.90
25582;DHT22;13462;50.764;4.332;2024-02-26T07:32:12;6.20;99.90
25582;DHT22;13462;50.764;4.332;2024-02-26T07:34:38;6.20;99.90
25582;DHT22;13462;50.764;4.332;2024-02-26T07:37:07;6.20;99.90
25582;DHT22;13462;50.764;4.332;2024-02-26T07:39:33;6.10;99.90
25582;DHT22;13462;50.764;4.332;2024-02-26T07:41:58;6.10;99.90
25582;DHT22;13462;50.764;4.332;2024-02-26T07:44:24;6.10;99.90
25582;DHT22;13462;50.764;4.332;2024-02-26T07:46:50;6.10;99.90
25582;DHT22;13462;50.764;4.332;2024-02-26T07:49:15;6.10;99.90
25582;DHT22;13462;50.764;4.332;2024-02-26T07:51:41;6.10;99.90
25582;DHT22;13462;50.764;4.332;2024-02-26T07:54:07;6.10;99.90
25582;DHT22;13462;50.764;4.332;2024-02-26T07:56:32;6.10;99.90
25582;DHT22;13462;50.764;4.332;2024-02-26T07:58:58;6.10;99.90
25582;DHT22;13462;50.764;4.332;2024-02-26T08:01:24;6.10;99.90
25582;DHT22;13462;50.764;4.332;2024-02-26T08:03:51;6.10;99.90
25582;DHT22;13462;50.764;4.332;2024-02-26T08:06:17;6.10;99.90
25582;DHT22;13462;50.764;4.332;2024-02-26T08:08:42;6.00;99.90
25582;DHT22;13462;50.764;4.332;2024-02-26T08:11:09;6.10;99.90
25582;DHT22;13462;50.764;4.332;2024-02-26T08:13:34;6.10;99.90
25582;DHT22;13462;50.764;4.332;2024-02-26T08:16:01;6.10;99.90
25582;DHT22;13462;50.764;4.332;2024-02-26T08:18:26;6.10;99.90
25582;DHT22;13462;50.764;4.332;2024-02-26T08:20:52;6.10;99.90
25582;DHT22;13462;50.764;4.332;2024-02-26T08:23:18;6.10;99.90
25582;DHT22;13462;50.764;4.332;2024-02-26T08:25:43;6.10;99.90
25582;DHT22;13462;50.764;4.332;2024-02-26T08:28:09;6.10;99.90
25582;DHT22;13462;50.764;4.332;2024-02-26T08:30:38;6.10;99.90
25582;DHT22;13462;50.764;4.332;2024-02-26T08:33:04;6.10;99.90
25582;DHT22;13462;50.764;4.332;2024-02-26T08:35:29;6.10;99.90
25582;DHT22;13462;50.764;4.332;2024-02-26T08:37:55;6.10;99.90
25582;DHT22;13462;50.764;4.332;2024-02-26T08:40:21;6.10;99.90
25582;DHT22;13462;50.764;4.332;2024-02-26T08:42:46;6.10;99.90
25582;DHT22;13462;50.764;4.332;2024-02-26T08:45:12;6.10;99.90
25582;DHT22;13462;50.764;4.332;2024-02-26T08:47:38;6.10;99.90
25582;DHT22;13462;50.764;4.332;2024-02-26T08:50:04;6.20;99.90
25582;DHT22;13462;50.764;4.332;2024-02-26T08:52:30;6.10;99.90
25582;DHT22;13462;50.764;4.332;2024-02-26T08:54:56;6.10;99.90
25582;DHT22;13462;50.764;4.332;2024-02-26T08:57:22;6.20;99.90
25582;DHT22;13462;50.764;4.332;2024-02-26T08:59:48;6.20;99.90
25582;DHT22;13462;50.764;4.332;2024-02-26T09:02:13;6.20;99.90
25582;DHT22;13462;50.764;4.332;2024-02-26T09:04:39;6.20;99.90
25582;DHT22;13462;50.764;4.332;2024-02-26T09:07:05;6.20;99.90
25582;DHT22;13462;50.764;4.332;2024-02-26T09:09:31;6.20;99.90
25582;DHT22;13462;50.764;4.332;2024-02-26T09:11:57;6.20;99.90
25582;DHT22;13462;50.764;4.332;2024-02-26T09:14:23;6.30;99.90
25582;DHT22;13462;50.764;4.332;2024-02-26T09:16:48;6.30;99.90
25582;DHT22;13462;50.764;4.332;2024-02-26T09:19:14;6.30;99.90
25582;DHT22;13462;50.764;4.332;2024-02-26T09:21:44;6.30;99.90
25582;DHT22;13462;50.764;4.332;2024-02-26T09:24:10;6.30;99.90
25582;DHT22;13462;50.764;4.332;2024-02-26T09:26:36;6.30;99.90
25582;DHT22;13462;50.764;4.332;2024-02-26T09:29:02;6.40;99.90
25582;DHT22;13462;50.764;4.332;2024-02-26T09:31:29;6.40;99.90
25582;DHT22;13462;50.764;4.332;2024-02-26T09:33:55;6.40;99.90
25582;DHT22;13462;50.764;4.332;2024-02-26T09:36:21;6.50;99.90
25582;DHT22;13462;50.764;4.332;2024-02-26T09:38:47;6.40;99.90
25582;DHT22;13462;50.764;4.332;2024-02-26T09:41:16;6.40;99.90
25582;DHT22;13462;50.764;4.332;2024-02-26T09:43:44;6.30;99.90
25582;DHT22;13462;50.764;4.332;2024-02-26T09:46:13;6.30;99.90
25582;DHT22;13462;50.764;4.332;2024-02-26T09:48:42;6.30;99.90
25582;DHT22;13462;50.764;4.332;2024-02-26T09:51:10;6.30;99.90
25582;DHT22;13462;50.764;4.332;2024-02-26T09:53:38;6.30;99.90
25582;DHT22;13462;50.764;4.332;2024-02-26T09:56:07;6.30;99.90
25582;DHT22;13462;50.764;4.332;2024-02-26T09:58:33;6.40;99.90
25582;DHT22;13462;50.764;4.332;2024-02-26T10:01:02;6.40;99.90
25582;DHT22;13462;50.764;4.332;2024-02-26T10:03:36;6.60;99.90
25582;DHT22;13462;50.764;4.332;2024-02-26T10:06:04;6.60;99.90
25582;DHT22;13462;50.764;4.332;2024-02-26T10:08:31;6.70;99.90
25582;DHT22;13462;50.764;4.332;2024-02-26T10:10:57;6.60;99.90
25582;DHT22;13462;50.764;4.332;2024-02-26T10:13:23;6.60;99.90
25582;DHT22;13462;50.764;4.332;2024-02-26T10:15:49;6.60;99.90
25582;DHT22;13462;50.764;4.332;2024-02-26T10:18:15;6.70;99.90
25582;DHT22;13462;50.764;4.332;2024-02-26T10:20:40;6.70;99.90
25582;DHT22;13462;50.764;4.332;2024-02-26T10:23:06;6.70;99.90
25582;DHT22;13462;50.764;4.332;2024-02-26T10:25:31;6.50;99.90
25582;DHT22;13462;50.764;4.332;2024-02-26T10:28:01;6.60;99.90
25582;DHT22;13462;50.764;4.332;2024-02-26T10:30:30;6.60;99.90
25582;DHT22;13462;50.764;4.332;2024-02-26T10:32:56;6.60;99.90
25582;DHT22;13462;50.764;4.332;2024-02-26T10:35:22;6.60;99.90
25582;DHT22;13462;50.764;4.332;2024-02-26T10:37:49;6.70;99.90
25582;DHT22;13462;50.764;4.332;2024-02-26T10:40:15;6.70;99.90
25582;DHT22;13462;50.764;4.332;2024-02-26T10:42:41;6.80;99.90
25582;DHT22;13462;50.764;4.332;2024-02-26T10:45:09;6.90;99.90
25582;DHT22;13462;50.764;4.332;2024-02-26T10:47:37;6.90;99.90
25582;DHT22;13462;50.764;4.332;2024-02-26T10:50:05;6.90;99.90
25582;DHT22;13462;50.764;4.332;2024-02-26T10:52:33;6.90;99.90
25582;DHT22;13462;50.764;4.332;2024-02-26T10:55:01;6.90;99.90
25582;DHT22;13462;50.764;4.332;2024-02-26T10:57:35;6.90;99.90
25582;DHT22;13462;50.764;4.332;2024-02-26T11:00:03;6.80;99.90
25582;DHT22;13462;50.764;4.332;2024-02-26T11:02:33;6.70;99.90
25582;DHT22;13462;50.764;4.332;2024-02-26T11:05:03;6.70;99.90
25582;DHT22;13462;50.764;4.332;2024-02-26T11:07:32;6.60;99.90
25582;DHT22;13462;50.764;4.332;2024-02-26T11:10:00;6.60;99.90
25582;DHT22;13462;50.764;4.332;2024-02-26T11:12:27;6.60;99.90
25582;DHT22;13462;50.764;4.332;2024-02-26T11:14:55;6.50;99.90
25582;DHT22;13462;50.764;4.332;2024-02-26T11:17:23;6.40;99.90
25582;DHT22;13462;50.764;4.332;2024-02-26T11:19:52;6.40;99.90
25582;DHT22;13462;50.764;4.332;2024-02-26T11:22:19;6.40;99.90
25582;DHT22;13462;50.764;4.332;2024-02-26T11:24:48;6.40;99.90
25582;DHT22;13462;50.764;4.332;2024-02-26T11:27:16;6.40;99.90
25582;DHT22;13462;50.764;4.332;2024-02-26T11:29:52;6.40;99.90
25582;DHT22;13462;50.764;4.332;2024-02-26T11:32:18;6.30;99.90
25582;DHT22;13462;50.764;4.332;2024-02-26T11:34:44;6.30;99.90
25582;DHT22;13462;50.764;4.332;2024-02-26T11:37:19;6.30;99.90
25582;DHT22;13462;50.764;4.332;2024-02-26T11:39:45;6.30;99.90
25582;DHT22;13462;50.764;4.332;2024-02-26T11:42:14;6.30;99.90
25582;DHT22;13462;50.764;4.332;2024-02-26T11:44:40;6.30;99.90
25582;DHT22;13462;50.764;4.332;2024-02-26T11:47:18;6.30;99.90
25582;DHT22;13462;50.764;4.332;2024-02-26T11:49:43;6.30;99.90
25582;DHT22;13462;50.764;4.332;2024-02-26T11:52:10;6.30;99.90
25582;DHT22;13462;50.764;4.332;2024-02-26T11:54:50;6.30;99.90
25582;DHT22;13462;50.764;4.332;2024-02-26T11:57:38;6.30;99.90
25582;DHT22;13462;50.764;4.332;2024-02-26T12:02:47;6.30;99.90
25582;DHT22;13462;50.764;4.332;2024-02-26T12:05:17;6.30;99.90
25582;DHT22;13462;50.764;4.332;2024-02-26T12:07:47;6.30;99.90
25582;DHT22;13462;50.764;4.332;2024-02-26T12:10:28;6.30;99.90
25582;DHT22;13462;50.764;4.332;2024-02-26T12:13:00;6.20;99.90
25582;DHT22;13462;50.764;4.332;2024-02-26T12:15:32;6.20;99.90
25582;DHT22;13462;50.764;4.332;2024-02-26T12:18:01;6.20;99.90
25582;DHT22;13462;50.764;4.332;2024-02-26T12:20:27;6.20;99.90
25582;DHT22;13462;50.764;4.332;2024-02-26T12:22:54;6.30;99.90
25582;DHT22;13462;50.764;4.332;2024-02-26T12:25:26;6.40;99.90
25582;DHT22;13462;50.764;4.332;2024-02-26T12:27:53;6.40;99.90
25582;DHT22;13462;50.764;4.332;2024-02-26T12:30:19;6.40;99.90
25582;DHT22;13462;50.764;4.332;2024-02-26T12:32:46;6.40;99.90
25582;DHT22;13462;50.764;4.332;2024-02-26T12:35:12;6.50;99.90
25582;DHT22;13462;50.764;4.332;2024-02-26T12:37:38;6.40;99.90
25582;DHT22;13462;50.764;4.332;2024-02-26T12:40:06;6.30;99.90
25582;DHT22;13462;50.764;4.332;2024-02-26T12:42:34;6.30;99.90
25582;DHT22;13462;50.764;4.332;2024-02-26T12:45:08;6.30;99.90
25582;DHT22;13462;50.764;4.332;2024-02-26T12:47:44;6.20;99.90
25582;DHT22;13462;50.764;4.332;2024-02-26T12:50:15;6.20;99.90
25582;DHT22;13462;50.764;4.332;2024-02-26T12:52:45;6.20;99.90
25582;DHT22;13462;50.764;4.332;2024-02-26T12:55:14;6.20;99.90
25582;DHT22;13462;50.764;4.332;2024-02-26T12:57:41;6.20;99.90
25582;DHT22;13462;50.764;4.332;2024-02-26T13:00:12;6.10;99.90
25582;DHT22;13462;50.764;4.332;2024-02-26T13:02:38;6.20;99.90
25582;DHT22;13462;50.764;4.332;2024-02-26T13:05:06;6.20;99.90
25582;DHT22;13462;50.764;4.332;2024-02-26T13:07:33;6.30;99.90
25582;DHT22;13462;50.764;4.332;2024-02-26T13:09:59;6.30;99.90
25582;DHT22;13462;50.764;4.332;2024-02-26T13:12:25;6.30;99.90
25582;DHT22;13462;50.764;4.332;2024-02-26T13:15:01;6.30;99.90
25582;DHT22;13462;50.764;4.332;2024-02-26T13:17:27;6.30;99.90
25582;DHT22;13462;50.764;4.332;2024-02-26T13:19:56;6.30;99.90
25582;DHT22;13462;50.764;4.332;2024-02-26T13:22:22;6.30;99.90
25582;DHT22;13462;50.764;4.332;2024-02-26T13:24:55;6.30;99.90
25582;DHT22;13462;50.764;4.332;2024-02-26T13:27:25;6.30;99.90
25582;DHT22;13462;50.764;4.332;2024-02-26T13:30:10;6.30;99.90
25582;DHT22;13462;50.764;4.332;2024-02-26T13:32:37;6.30;99.90
25582;DHT22;13462;50.764;4.332;2024-02-26T13:35:11;6.20;99.90
25582;DHT22;13462;50.764;4.332;2024-02-26T13:37:38;6.20;99.90
25582;DHT22;13462;50.764;4.332;2024-02-26T13:40:14;6.20;99.90
25582;DHT22;13462;50.764;4.332;2024-02-26T13:42:39;6.10;99.90
25582;DHT22;13462;50.764;4.332;2024-02-26T13:45:06;6.00;99.90
25582;DHT22;13462;50.764;4.332;2024-02-26T13:47:33;5.90;99.90
25582;DHT22;13462;50.764;4.332;2024-02-26T13:49:58;6.00;99.90
25582;DHT22;13462;50.764;4.332;2024-02-26T13:52:24;5.90;99.90
25582;DHT22;13462;50.764;4.332;2024-02-26T13:54:51;5.90;99.90
25582;DHT22;13462;50.764;4.332;2024-02-26T13:57:16;5.90;99.90
25582;DHT22;13462;50.764;4.332;2024-02-26T13:59:43;5.90;99.90
25582;DHT22;13462;50.764;4.332;2024-02-26T14:02:09;5.90;99.90
25582;DHT22;13462;50.764;4.332;2024-02-26T14:04:36;5.90;99.90
25582;DHT22;13462;50.764;4.332;2024-02-26T14:07:02;5.90;99.90
25582;DHT22;13462;50.764;4.332;2024-02-26T14:09:28;5.90;99.90
25582;DHT22;13462;50.764;4.332;2024-02-26T14:11:54;5.90;99.90
25582;DHT22;13462;50.764;4.332;2024-02-26T14:14:20;5.90;99.90
25582;DHT22;13462;50.764;4.332;2024-02-26T14:16:45;5.90;99.90
25582;DHT22;13462;50.764;4.332;2024-02-26T14:19:11;6.00;99.90
25582;DHT22;13462;50.764;4.332;2024-02-26T14:21:37;6.00;99.90
25582;DHT22;13462;50.764;4.332;2024-02-26T14:24:02;6.00;99.90
25582;DHT22;13462;50.764;4.332;2024-02-26T14:26:29;6.00;99.90
25582;DHT22;13462;50.764;4.332;2024-02-26T14:28:54;6.00;99.90
25582;DHT22;13462;50.764;4.332;2024-02-26T14:31:21;6.00;99.90
25582;DHT22;13462;50.764;4.332;2024-02-26T14:33:47;6.00;99.90
25582;DHT22;13462;50.764;4.332;2024-02-26T14:36:14;6.00;99.90
25582;DHT22;13462;50.764;4.332;2024-02-26T14:38:39;6.10;99.90
25582;DHT22;13462;50.764;4.332;2024-02-26T14:41:05;6.10;99.90
25582;DHT22;13462;50.764;4.332;2024-02-26T14:43:31;6.00;99.90
25582;DHT22;13462;50.764;4.332;2024-02-26T14:45:58;6.00;99.90
25582;DHT22;13462;50.764;4.332;2024-02-26T14:48:24;6.10;99.90
25582;DHT22;13462;50.764;4.332;2024-02-26T14:50:50;6.20;99.90
25582;DHT22;13462;50.764;4.332;2024-02-26T14:53:17;6.20;99.90
25582;DHT22;13462;50.764;4.332;2024-02-26T14:55:45;6.20;99.90
25582;DHT22;13462;50.764;4.332;2024-02-26T14:58:11;6.30;99.90
25582;DHT22;13462;50.764;4.332;2024-02-26T15:00:40;6.30;99.90
25582;DHT22;13462;50.764;4.332;2024-02-26T15:03:05;6.30;99.90
25582;DHT22;13462;50.764;4.332;2024-02-26T15:05:32;6.30;99.90
25582;DHT22;13462;50.764;4.332;2024-02-26T15:07:58;6.20;99.90
25582;DHT22;13462;50.764;4.332;2024-02-26T15:10:25;6.20;99.90
25582;DHT22;13462;50.764;4.332;2024-02-26T15:12:50;6.30;99.90
25582;DHT22;13462;50.764;4.332;2024-02-26T15:15:20;6.30;99.90
25582;DHT22;13462;50.764;4.332;2024-02-26T15:17:46;6.30;99.90
25582;DHT22;13462;50.764;4.332;2024-02-26T15:20:11;6.30;99.90
25582;DHT22;13462;50.764;4.332;2024-02-26T15:22:37;6.30;99.90
25582;DHT22;13462;50.764;4.332;2024-02-26T15:25:03;6.20;99.90
25582;DHT22;13462;50.764;4.332;2024-02-26T15:27:29;6.30;99.90
25582;DHT22;13462;50.764;4.332;2024-02-26T15:29:55;6.20;99.90
25582;DHT22;13462;50.764;4.332;2024-02-26T15:32:24;6.10;99.90
25582;DHT22;13462;50.764;4.332;2024-02-26T15:34:50;6.20;99.90
25582;DHT22;13462;50.764;4.332;2024-02-26T15:37:17;6.20;99.90
25582;DHT22;13462;50.764;4.332;2024-02-26T15:39:42;6.10;99.90
25582;DHT22;13462;50.764;4.332;2024-02-26T15:42:08;6.10;99.90
25582;DHT22;13462;50.764;4.332;2024-02-26T15:44:33;6.10;99.90